DLH5CO EDDF-EDDH
Flight info
| Callsign | DLH5CO |
|---|---|
| Flight time | 0h 44m |
| Altitude | 31000 |
| Route | MARUN3W/25C MARUN Y150 TOLGI DCT SAS/N0445F340 P605 NOLGO NOLGO6A |
| Aircraft | A320/M-SDE3FGHIRWY/LB1 |
Departure
| Time | 2026-05-07 10:17 |
|---|---|
| Airport | Frankfurt Main Airport (EDDF) |
Arrival
| Time | 2026-05-07 11:01 |
|---|---|
| Airport | Hamburg Helmut Schmidt Airport (EDDH) |
| Time | Latitude | Longitude | Altitude | Speed | Heading |
|---|---|---|---|---|---|
| 2026-05-07 10:08 | 50.04855 | 8.58899 | 367 ft | 0 kts | 340° |
| 2026-05-07 10:12 | 50.04840 | 8.58908 | 367 ft | 2 kts | 340° |
| 2026-05-07 10:12 | 50.04824 | 8.58916 | 369 ft | 2 kts | 340° |
| 2026-05-07 10:12 | 50.04809 | 8.58925 | 368 ft | 2 kts | 340° |
| 2026-05-07 10:13 | 50.04793 | 8.58934 | 367 ft | 2 kts | 340° |
| 2026-05-07 10:13 | 50.04778 | 8.58944 | 369 ft | 2 kts | 299° |
| 2026-05-07 10:13 | 50.04775 | 8.58968 | 368 ft | 2 kts | 255° |
| 2026-05-07 10:13 | 50.04778 | 8.58986 | 368 ft | 1 kts | 247° |
| 2026-05-07 10:14 | 50.04779 | 8.58987 | 368 ft | 0 kts | 247° |
| 2026-05-07 10:15 | 50.04778 | 8.58984 | 368 ft | 2 kts | 248° |
| 2026-05-07 10:15 | 50.04767 | 8.58937 | 368 ft | 8 kts | 250° |
| 2026-05-07 10:15 | 50.04744 | 8.58837 | 368 ft | 11 kts | 249° |
| 2026-05-07 10:15 | 50.04691 | 8.58766 | 371 ft | 9 kts | 191° |
| 2026-05-07 10:16 | 50.04630 | 8.58755 | 370 ft | 9 kts | 192° |
| 2026-05-07 10:16 | 50.04574 | 8.58701 | 371 ft | 11 kts | 218° |
| 2026-05-07 10:16 | 50.04508 | 8.58614 | 371 ft | 14 kts | 226° |
| 2026-05-07 10:16 | 50.04445 | 8.58411 | 370 ft | 42 kts | 250° |
| 2026-05-07 10:17 | 50.04252 | 8.57604 | 364 ft | 114 kts | 249° |
| 2026-05-07 10:17 | 50.03901 | 8.56145 | 394 ft | 164 kts | 252° |
| 2026-05-07 10:17 | 50.03497 | 8.54495 | 1114 ft | 166 kts | 251° |
| 2026-05-07 10:17 | 50.03083 | 8.52784 | 1871 ft | 177 kts | 252° |
| 2026-05-07 10:18 | 50.02620 | 8.50858 | 2315 ft | 196 kts | 247° |
| 2026-05-07 10:18 | 50.01778 | 8.49137 | 2967 ft | 205 kts | 223° |
| 2026-05-07 10:18 | 50.00531 | 8.48095 | 3662 ft | 210 kts | 197° |
| 2026-05-07 10:18 | 49.99074 | 8.47742 | 4371 ft | 213 kts | 189° |
| 2026-05-07 10:19 | 49.97594 | 8.47423 | 5066 ft | 216 kts | 189° |
| 2026-05-07 10:19 | 49.96096 | 8.47080 | 5738 ft | 219 kts | 194° |
| 2026-05-07 10:19 | 49.94610 | 8.46422 | 6269 ft | 230 kts | 198° |
| 2026-05-07 10:19 | 49.92996 | 8.45659 | 6704 ft | 251 kts | 202° |
| 2026-05-07 10:20 | 49.91537 | 8.44202 | 7523 ft | 253 kts | 230° |
| 2026-05-07 10:20 | 49.90717 | 8.41836 | 8479 ft | 250 kts | 259° |
| 2026-05-07 10:20 | 49.90725 | 8.39162 | 9422 ft | 252 kts | 285° |
| 2026-05-07 10:20 | 49.91564 | 8.36785 | 10299 ft | 256 kts | 313° |
| 2026-05-07 10:21 | 49.93088 | 8.35259 | 11125 ft | 263 kts | 335° |
| 2026-05-07 10:21 | 49.94842 | 8.34125 | 11568 ft | 285 kts | 335° |
| 2026-05-07 10:21 | 49.96755 | 8.32894 | 11884 ft | 309 kts | 336° |
| 2026-05-07 10:21 | 49.98815 | 8.31570 | 12167 ft | 333 kts | 336° |
| 2026-05-07 10:22 | 50.01012 | 8.30164 | 12651 ft | 346 kts | 338° |
| 2026-05-07 10:22 | 50.03364 | 8.29181 | 13373 ft | 354 kts | 349° |
| 2026-05-07 10:22 | 50.05810 | 8.28968 | 14110 ft | 360 kts | 1° |
| 2026-05-07 10:22 | 50.08301 | 8.29598 | 14808 ft | 366 kts | 14° |
| 2026-05-07 10:23 | 50.10738 | 8.30853 | 15498 ft | 371 kts | 17° |
| 2026-05-07 10:23 | 50.13198 | 8.32152 | 16191 ft | 375 kts | 17° |
| 2026-05-07 10:23 | 50.15681 | 8.33458 | 16872 ft | 379 kts | 17° |
| 2026-05-07 10:23 | 50.18225 | 8.34792 | 17547 ft | 383 kts | 17° |
| 2026-05-07 10:24 | 50.20764 | 8.36123 | 18201 ft | 388 kts | 17° |
| 2026-05-07 10:24 | 50.23334 | 8.37473 | 18774 ft | 392 kts | 17° |
| 2026-05-07 10:24 | 50.25931 | 8.38840 | 19345 ft | 395 kts | 17° |
| 2026-05-07 10:24 | 50.28545 | 8.40214 | 19918 ft | 398 kts | 17° |
| 2026-05-07 10:25 | 50.31184 | 8.41611 | 20491 ft | 402 kts | 18° |
| 2026-05-07 10:25 | 50.33839 | 8.43042 | 21049 ft | 405 kts | 18° |
| 2026-05-07 10:25 | 50.36506 | 8.44500 | 21603 ft | 408 kts | 18° |
| 2026-05-07 10:25 | 50.39201 | 8.45983 | 22143 ft | 412 kts | 18° |
| 2026-05-07 10:26 | 50.41912 | 8.47477 | 22681 ft | 415 kts | 18° |
| 2026-05-07 10:26 | 50.44646 | 8.48982 | 23204 ft | 418 kts | 18° |
| 2026-05-07 10:26 | 50.47401 | 8.50494 | 23700 ft | 421 kts | 18° |
| 2026-05-07 10:26 | 50.50182 | 8.51948 | 24127 ft | 424 kts | 16° |
| 2026-05-07 10:27 | 50.53006 | 8.53326 | 24570 ft | 426 kts | 15° |
| 2026-05-07 10:27 | 50.55861 | 8.54661 | 24990 ft | 429 kts | 15° |
| 2026-05-07 10:27 | 50.58734 | 8.55979 | 25413 ft | 431 kts | 15° |
| 2026-05-07 10:27 | 50.61621 | 8.57311 | 25845 ft | 434 kts | 15° |
| 2026-05-07 10:28 | 50.64523 | 8.58675 | 26256 ft | 437 kts | 15° |
| 2026-05-07 10:28 | 50.66456 | 8.59596 | 26534 ft | 438 kts | 16° |
| 2026-05-07 10:28 | 50.69420 | 8.61022 | 26949 ft | 441 kts | 16° |
| 2026-05-07 10:28 | 50.72360 | 8.62447 | 27348 ft | 443 kts | 16° |
| 2026-05-07 10:29 | 50.75315 | 8.63884 | 27747 ft | 446 kts | 16° |
| 2026-05-07 10:29 | 50.78241 | 8.65526 | 28126 ft | 449 kts | 23° |
| 2026-05-07 10:29 | 50.80996 | 8.67878 | 28485 ft | 452 kts | 33° |
| 2026-05-07 10:30 | 50.85667 | 8.74564 | 29192 ft | 457 kts | 51° |
| 2026-05-07 10:30 | 50.87596 | 8.78583 | 29538 ft | 460 kts | 53° |
| 2026-05-07 10:30 | 50.89527 | 8.82631 | 29871 ft | 462 kts | 53° |
| 2026-05-07 10:30 | 50.91476 | 8.86707 | 30180 ft | 465 kts | 53° |
| 2026-05-07 10:31 | 50.93431 | 8.90793 | 30448 ft | 467 kts | 53° |
| 2026-05-07 10:31 | 50.95397 | 8.94899 | 30804 ft | 467 kts | 53° |
| 2026-05-07 10:31 | 50.97360 | 8.99009 | 30979 ft | 468 kts | 53° |
| 2026-05-07 10:31 | 50.99324 | 9.03133 | 31023 ft | 469 kts | 53° |
| 2026-05-07 10:32 | 51.03243 | 9.11411 | 31025 ft | 470 kts | 53° |
| 2026-05-07 10:32 | 51.07170 | 9.19713 | 31026 ft | 470 kts | 51° |
| 2026-05-07 10:33 | 51.12022 | 9.26606 | 31031 ft | 470 kts | 31° |
| 2026-05-07 10:33 | 51.18025 | 9.30549 | 31025 ft | 468 kts | 12° |
| 2026-05-07 10:34 | 51.24392 | 9.32729 | 31012 ft | 468 kts | 12° |
| 2026-05-07 10:34 | 51.30746 | 9.34948 | 31012 ft | 468 kts | 12° |
| 2026-05-07 10:35 | 51.37101 | 9.37172 | 31020 ft | 468 kts | 12° |
| 2026-05-07 10:35 | 51.43463 | 9.39391 | 31014 ft | 468 kts | 12° |
| 2026-05-07 10:36 | 51.49861 | 9.41623 | 31023 ft | 468 kts | 12° |
| 2026-05-07 10:36 | 51.56226 | 9.43854 | 31019 ft | 468 kts | 12° |
| 2026-05-07 10:37 | 51.62581 | 9.46095 | 31020 ft | 468 kts | 12° |
| 2026-05-07 10:37 | 51.68937 | 9.48343 | 31016 ft | 467 kts | 12° |
| 2026-05-07 10:38 | 51.75286 | 9.50579 | 31011 ft | 467 kts | 12° |
| 2026-05-07 10:38 | 51.81626 | 9.52888 | 31007 ft | 467 kts | 16° |
| 2026-05-07 10:39 | 51.87546 | 9.57092 | 31010 ft | 465 kts | 28° |
| 2026-05-07 10:39 | 51.93305 | 9.61889 | 31003 ft | 465 kts | 27° |
| 2026-05-07 10:40 | 51.99067 | 9.66659 | 31007 ft | 465 kts | 27° |
| 2026-05-07 10:40 | 52.04826 | 9.71441 | 31011 ft | 465 kts | 28° |
| 2026-05-07 10:41 | 52.10583 | 9.76238 | 31010 ft | 464 kts | 28° |
| 2026-05-07 10:41 | 52.16317 | 9.81050 | 31025 ft | 464 kts | 28° |
| 2026-05-07 10:42 | 52.22048 | 9.85864 | 31015 ft | 463 kts | 28° |
| 2026-05-07 10:42 | 52.24959 | 9.88134 | 30603 ft | 463 kts | 23° |
| 2026-05-07 10:42 | 52.28025 | 9.89741 | 30108 ft | 463 kts | 17° |
| 2026-05-07 10:43 | 52.31132 | 9.91108 | 29397 ft | 462 kts | 17° |
| 2026-05-07 10:43 | 52.34242 | 9.92470 | 28695 ft | 464 kts | 16° |
| 2026-05-07 10:43 | 52.37371 | 9.93836 | 28000 ft | 466 kts | 16° |
| 2026-05-07 10:43 | 52.40514 | 9.95208 | 27329 ft | 469 kts | 16° |
| 2026-05-07 10:44 | 52.43676 | 9.96593 | 26674 ft | 472 kts | 16° |
| 2026-05-07 10:44 | 52.46880 | 9.98004 | 26032 ft | 470 kts | 15° |
| 2026-05-07 10:44 | 52.50026 | 9.99395 | 25490 ft | 466 kts | 15° |
| 2026-05-07 10:44 | 52.53154 | 10.00786 | 24998 ft | 464 kts | 15° |
| 2026-05-07 10:45 | 52.56257 | 10.02173 | 24516 ft | 461 kts | 15° |
| 2026-05-07 10:45 | 52.59345 | 10.03555 | 24040 ft | 459 kts | 15° |
| 2026-05-07 10:45 | 52.62420 | 10.04932 | 23557 ft | 457 kts | 15° |
| 2026-05-07 10:45 | 52.65479 | 10.06304 | 23005 ft | 454 kts | 15° |
| 2026-05-07 10:46 | 52.68519 | 10.07665 | 22461 ft | 451 kts | 15° |
| 2026-05-07 10:46 | 52.71531 | 10.09015 | 21929 ft | 448 kts | 15° |
| 2026-05-07 10:46 | 52.74530 | 10.10358 | 21404 ft | 445 kts | 15° |
| 2026-05-07 10:46 | 52.77533 | 10.11499 | 20884 ft | 441 kts | 8° |
| 2026-05-07 10:47 | 52.80577 | 10.11881 | 20379 ft | 438 kts | 0° |
| 2026-05-07 10:47 | 52.83611 | 10.11969 | 19885 ft | 435 kts | 0° |
| 2026-05-07 10:47 | 52.86632 | 10.12066 | 19393 ft | 433 kts | 0° |
| 2026-05-07 10:47 | 52.89633 | 10.12169 | 18914 ft | 430 kts | 0° |
| 2026-05-07 10:48 | 52.92618 | 10.12272 | 18439 ft | 428 kts | 0° |
| 2026-05-07 10:48 | 52.95567 | 10.11996 | 17869 ft | 422 kts | 347° |
| 2026-05-07 10:48 | 52.98292 | 10.10351 | 17208 ft | 414 kts | 329° |
| 2026-05-07 10:48 | 53.00698 | 10.07783 | 16420 ft | 408 kts | 324° |
| 2026-05-07 10:49 | 53.03030 | 10.05145 | 15462 ft | 402 kts | 324° |
| 2026-05-07 10:49 | 53.05316 | 10.02520 | 14373 ft | 397 kts | 324° |
| 2026-05-07 10:49 | 53.07560 | 9.99902 | 13300 ft | 391 kts | 324° |
| 2026-05-07 10:49 | 53.09753 | 9.97296 | 12197 ft | 383 kts | 324° |
| 2026-05-07 10:50 | 53.11880 | 9.94734 | 11375 ft | 370 kts | 324° |
| 2026-05-07 10:50 | 53.13907 | 9.92261 | 10784 ft | 352 kts | 324° |
| 2026-05-07 10:50 | 53.15817 | 9.89902 | 10327 ft | 333 kts | 324° |
| 2026-05-07 10:50 | 53.17623 | 9.87648 | 9928 ft | 316 kts | 324° |
| 2026-05-07 10:51 | 53.19329 | 9.85498 | 9607 ft | 298 kts | 324° |
| 2026-05-07 10:51 | 53.20937 | 9.83453 | 9227 ft | 287 kts | 324° |
| 2026-05-07 10:51 | 53.22518 | 9.81427 | 8838 ft | 286 kts | 324° |
| 2026-05-07 10:51 | 53.24092 | 9.79400 | 8456 ft | 285 kts | 324° |
| 2026-05-07 10:52 | 53.25653 | 9.77379 | 8073 ft | 283 kts | 324° |
| 2026-05-07 10:52 | 53.27200 | 9.75367 | 7690 ft | 281 kts | 324° |
| 2026-05-07 10:52 | 53.28736 | 9.73360 | 7342 ft | 279 kts | 324° |
| 2026-05-07 10:52 | 53.30248 | 9.71373 | 7045 ft | 274 kts | 324° |
| 2026-05-07 10:53 | 53.31735 | 9.69408 | 6745 ft | 270 kts | 324° |
| 2026-05-07 10:53 | 53.33194 | 9.67475 | 6459 ft | 266 kts | 324° |
| 2026-05-07 10:53 | 53.34635 | 9.65555 | 6083 ft | 264 kts | 324° |
| 2026-05-07 10:53 | 53.36069 | 9.63643 | 5694 ft | 262 kts | 325° |
| 2026-05-07 10:54 | 53.37453 | 9.62388 | 5358 ft | 255 kts | 348° |
| 2026-05-07 10:54 | 53.39154 | 9.62357 | 5085 ft | 240 kts | 18° |
| 2026-05-07 10:54 | 53.40716 | 9.63214 | 4839 ft | 233 kts | 24° |
| 2026-05-07 10:54 | 53.42218 | 9.64163 | 4572 ft | 229 kts | 24° |
| 2026-05-07 10:55 | 53.43705 | 9.65107 | 4314 ft | 227 kts | 24° |
| 2026-05-07 10:55 | 53.45180 | 9.66041 | 4087 ft | 225 kts | 24° |
| 2026-05-07 10:55 | 53.46632 | 9.66958 | 3945 ft | 220 kts | 26° |
| 2026-05-07 10:55 | 53.47864 | 9.68331 | 3817 ft | 209 kts | 50° |
| 2026-05-07 10:56 | 53.48789 | 9.70155 | 3682 ft | 201 kts | 52° |
| 2026-05-07 10:56 | 53.49668 | 9.71925 | 3553 ft | 194 kts | 52° |
| 2026-05-07 10:56 | 53.50520 | 9.73636 | 3429 ft | 188 kts | 53° |
| 2026-05-07 10:56 | 53.51349 | 9.75298 | 3308 ft | 182 kts | 52° |
| 2026-05-07 10:57 | 53.52139 | 9.76878 | 3235 ft | 171 kts | 52° |
| 2026-05-07 10:57 | 53.52885 | 9.78377 | 3075 ft | 165 kts | 52° |
| 2026-05-07 10:57 | 53.53619 | 9.79851 | 2860 ft | 164 kts | 52° |
| 2026-05-07 10:57 | 53.54227 | 9.81078 | 2625 ft | 163 kts | 52° |
| 2026-05-07 10:58 | 53.54879 | 9.82384 | 2464 ft | 162 kts | 51° |
| 2026-05-07 10:58 | 53.55607 | 9.83803 | 2237 ft | 158 kts | 51° |
| 2026-05-07 10:58 | 53.56288 | 9.85163 | 2047 ft | 145 kts | 52° |
| 2026-05-07 10:58 | 53.56883 | 9.86412 | 1933 ft | 131 kts | 52° |
| 2026-05-07 10:59 | 53.57454 | 9.87582 | 1731 ft | 129 kts | 51° |
| 2026-05-07 10:59 | 53.58030 | 9.88765 | 1582 ft | 131 kts | 50° |
| 2026-05-07 10:59 | 53.58608 | 9.89937 | 1323 ft | 130 kts | 51° |
| 2026-05-07 10:59 | 53.59188 | 9.91098 | 1119 ft | 130 kts | 50° |
| 2026-05-07 11:00 | 53.59776 | 9.92258 | 851 ft | 128 kts | 50° |
| 2026-05-07 11:00 | 53.60350 | 9.93391 | 610 ft | 126 kts | 52° |
| 2026-05-07 11:00 | 53.60904 | 9.94519 | 404 ft | 124 kts | 50° |
| 2026-05-07 11:00 | 53.61454 | 9.95618 | 243 ft | 123 kts | 52° |
| 2026-05-07 11:01 | 53.61992 | 9.96718 | 97 ft | 121 kts | 51° |
| 2026-05-07 11:01 | 53.62496 | 9.97736 | 51 ft | 101 kts | 50° |
| 2026-05-07 11:01 | 53.62847 | 9.98443 | 53 ft | 62 kts | 50° |
| 2026-05-07 11:01 | 53.63090 | 9.98936 | 52 ft | 48 kts | 51° |
| 2026-05-07 11:02 | 53.63246 | 9.99254 | 51 ft | 24 kts | 57° |
| 2026-05-07 11:02 | 53.63282 | 9.99387 | 53 ft | 15 kts | 73° |
| 2026-05-07 11:02 | 53.63287 | 9.99526 | 51 ft | 8 kts | 97° |
| 2026-05-07 11:02 | 53.63276 | 9.99638 | 51 ft | 11 kts | 99° |
| 2026-05-07 11:03 | 53.63291 | 9.99781 | 48 ft | 14 kts | 57° |
| 2026-05-07 11:03 | 53.63356 | 9.99920 | 51 ft | 16 kts | 51° |
| 2026-05-07 11:03 | 53.63428 | 10.00067 | 51 ft | 14 kts | 54° |
| 2026-05-07 11:03 | 53.63445 | 10.00189 | 51 ft | 11 kts | 86° |
| 2026-05-07 11:04 | 53.63449 | 10.00283 | 51 ft | 3 kts | 86° |
| 2026-05-07 11:04 | 53.63450 | 10.00307 | 51 ft | 0 kts | 86° |